Time;durP1;ratioP1;P1;durP2;ratioP2;P2;SDS_P1;SDS_P2;PMS_P1;PMS_P2;Temp;Humidity;BMP_temperature;BMP_pressure;BME280_temperature;BME280_humidity;BME280_pressure;Samples;Min_cycle;Max_cycle;Signal;HPM_P1;HPM_P2
2023/03/22 00:01:29;;;;;;;7.15;3.05;;;13.00;73.80;;;;;;5097751;28;20084;-62
2023/03/22 00:03:56;;;;;;;8.40;2.97;;;13.00;73.70;;;;;;5098421;28;20031;-62
2023/03/22 00:06:22;;;;;;;10.07;3.08;;;13.00;73.60;;;;;;5099326;28;20023;-62
2023/03/22 00:08:50;;;;;;;9.95;3.90;;;13.00;73.50;;;;;;5100289;28;20452;-62
2023/03/22 00:11:16;;;;;;;8.73;2.83;;;13.00;73.50;;;;;;5097012;28;20024;-62
2023/03/22 00:13:45;;;;;;;7.70;2.70;;;12.90;73.40;;;;;;5103099;28;20447;-62
2023/03/22 00:16:12;;;;;;;7.43;2.60;;;12.90;73.40;;;;;;5096317;28;20351;-62
2023/03/22 00:18:38;;;;;;;9.98;3.15;;;12.90;73.30;;;;;;5097393;28;20024;-62
2023/03/22 00:21:04;;;;;;;7.63;2.95;;;12.90;73.30;;;;;;5096742;28;20416;-62
2023/03/22 00:23:30;;;;;;;10.73;2.83;;;12.90;73.20;;;;;;5095639;28;20390;-62
2023/03/22 00:25:57;;;;;;;7.47;2.40;;;12.90;73.20;;;;;;5096940;28;20024;-62
2023/03/22 00:28:23;;;;;;;8.80;3.28;;;12.90;73.10;;;;;;5096138;28;20051;-62
2023/03/22 00:30:57;;;;;;;9.02;2.97;;;12.90;73.10;;;;;;5098666;28;20020;-62
2023/03/22 00:33:26;;;;;;;9.70;3.00;;;12.90;73.00;;;;;;5095693;28;20439;-62
2023/03/22 00:36:12;;;;;;;9.30;2.70;;;12.90;73.00;;;;;;5095634;28;20039;-62
2023/03/22 00:38:38;;;;;;;6.65;2.00;;;12.90;72.80;;;;;;5095522;28;20040;-62
2023/03/22 00:41:13;;;;;;;6.80;2.33;;;12.80;72.90;;;;;;5095758;28;20348;-62
2023/03/22 00:43:39;;;;;;;6.72;2.38;;;12.80;72.80;;;;;;5094796;28;20024;-62
2023/03/22 00:46:05;;;;;;;8.77;2.42;;;12.80;72.80;;;;;;5085351;28;20449;-62
2023/03/22 00:48:31;;;;;;;7.05;2.47;;;12.80;72.70;;;;;;5095830;28;20026;-62
2023/03/22 00:50:57;;;;;;;6.60;2.33;;;12.80;72.70;;;;;;5096453;28;20407;-62
2023/03/22 00:53:23;;;;;;;11.75;2.63;;;12.80;72.70;;;;;;5094627;28;20024;-62
2023/03/22 00:55:49;;;;;;;8.57;2.22;;;12.80;72.70;;;;;;5096385;28;20342;-62
2023/03/22 00:58:15;;;;;;;8.13;2.33;;;12.80;72.70;;;;;;5097475;28;20017;-62
2023/03/22 01:00:41;;;;;;;7.57;2.83;;;12.70;72.60;;;;;;5097119;28;20027;-62
2023/03/22 01:03:07;;;;;;;7.47;2.50;;;12.80;72.70;;;;;;5092610;28;20024;-62
2023/03/22 01:05:33;;;;;;;7.70;2.55;;;12.80;72.60;;;;;;5097517;28;20471;-62
2023/03/22 01:08:07;;;;;;;8.13;2.72;;;12.80;72.50;;;;;;5097493;28;20024;-62
2023/03/22 01:10:40;;;;;;;6.22;2.58;;;12.80;72.60;;;;;;5097957;28;20452;-62
2023/03/22 01:13:07;;;;;;;9.43;3.13;;;12.80;72.50;;;;;;5098553;28;20027;-62
2023/03/22 01:15:33;;;;;;;6.97;2.50;;;12.70;72.50;;;;;;5085832;28;20035;-62
2023/03/22 01:18:00;;;;;;;9.88;2.72;;;12.70;72.40;;;;;;5098169;28;20115;-62
2023/03/22 01:20:26;;;;;;;8.35;2.63;;;12.70;72.40;;;;;;5099043;28;20409;-62
2023/03/22 01:22:52;;;;;;;9.82;3.00;;;12.70;72.40;;;;;;5082047;28;20035;-62
2023/03/22 01:25:18;;;;;;;9.23;2.92;;;12.70;72.40;;;;;;5086777;28;20105;-62
2023/03/22 01:27:44;;;;;;;6.70;2.42;;;12.70;72.40;;;;;;5091627;28;20021;-62
2023/03/22 01:30:11;;;;;;;8.48;3.28;;;12.70;72.40;;;;;;5086171;28;21175;-62
2023/03/22 01:32:37;;;;;;;5.97;2.40;;;12.70;72.40;;;;;;5097396;28;20032;-62
2023/03/22 01:35:05;;;;;;;9.63;3.40;;;12.70;72.40;;;;;;5088399;28;20327;-62
2023/03/22 01:37:31;;;;;;;7.75;2.83;;;12.70;72.40;;;;;;5089148;28;20032;-62
2023/03/22 01:39:57;;;;;;;10.32;3.30;;;12.70;73.10;;;;;;5093952;28;20028;-62
2023/03/22 01:42:25;;;;;;;9.07;3.60;;;12.70;72.60;;;;;;5093504;28;20032;-62
2023/03/22 01:45:13;;;;;;;8.95;3.20;;;12.60;72.60;;;;;;5094299;28;20016;-62
2023/03/22 01:47:48;;;;;;;9.00;3.75;;;12.60;72.60;;;;;;5083899;28;20437;-62
2023/03/22 01:50:16;;;;;;;9.55;3.95;;;12.60;72.80;;;;;;5095346;28;20024;-62
2023/03/22 01:52:43;;;;;;;8.88;3.42;;;12.60;72.80;;;;;;5094428;28;20024;-62
2023/03/22 01:55:17;;;;;;;10.48;3.80;;;12.50;72.80;;;;;;5081726;28;20053;-62
2023/03/22 01:57:46;;;;;;;9.98;3.85;;;12.60;73.00;;;;;;5092427;28;20057;-62
2023/03/22 02:00:17;;;;;;;7.57;3.70;;;12.60;73.00;;;;;;5094880;28;20028;-62
2023/03/22 02:03:06;;;;;;;6.63;3.00;;;12.60;73.00;;;;;;5096524;28;20407;-63
2023/03/22 02:05:39;;;;;;;10.57;3.65;;;12.60;73.10;;;;;;5095974;28;20024;-62
2023/03/22 02:08:07;;;;;;;8.20;3.90;;;12.60;73.10;;;;;;5094709;28;20016;-62
2023/03/22 02:10:51;;;;;;;7.38;3.75;;;12.60;73.30;;;;;;5099951;28;20360;-62
2023/03/22 02:13:41;;;;;;;9.20;3.17;;;12.60;73.30;;;;;;5096794;28;20524;-62
2023/03/22 02:16:54;;;;;;;8.65;3.90;;;12.60;73.30;;;;;;5092592;28;20044;-62
2023/03/22 02:19:50;;;;;;;7.93;3.40;;;12.60;73.40;;;;;;5098287;28;20048;-62
2023/03/22 02:22:20;;;;;;;8.60;4.30;;;12.60;73.50;;;;;;5093358;28;20102;-62
2023/03/22 02:25:26;;;;;;;10.65;4.32;;;12.60;73.60;;;;;;5100031;28;20530;-62
2023/03/22 02:28:01;;;;;;;9.95;4.47;;;12.60;73.60;;;;;;5093456;28;20035;-62
2023/03/22 02:30:53;;;;;;;10.65;4.80;;;12.60;73.70;;;;;;5101925;28;20028;-61
2023/03/22 02:33:51;;;;;;;9.27;5.35;;;12.70;73.90;;;;;;5090793;28;20680;-62
2023/03/22 02:36:58;;;;;;;9.57;5.35;;;12.60;74.00;;;;;;5090610;28;20039;-62
2023/03/22 02:39:56;;;;;;;11.15;5.78;;;12.70;74.20;;;;;;5089100;28;20111;-62
2023/03/22 02:42:58;;;;;;;11.07;5.82;;;12.70;74.30;;;;;;5085973;28;20062;-62
2023/03/22 02:45:33;;;;;;;11.90;6.78;;;12.70;74.40;;;;;;5083993;28;20048;-62
2023/03/22 02:48:07;;;;;;;11.32;6.88;;;12.70;74.70;;;;;;5087042;28;20032;-62
2023/03/22 02:50:42;;;;;;;13.88;7.20;;;12.70;74.70;;;;;;5102884;28;20093;-62
2023/03/22 02:53:18;;;;;;;10.63;6.43;;;12.70;74.80;;;;;;5090598;28;20024;-62
2023/03/22 02:55:51;;;;;;;12.13;6.85;;;12.70;74.90;;;;;;5092858;28;20032;-62
2023/03/22 02:58:36;;;;;;;11.68;7.25;;;12.70;75.60;;;;;;5093077;28;20454;-62
2023/03/22 03:01:07;;;;;;;11.68;6.75;;;12.70;75.30;;;;;;5088556;28;20046;-62
2023/03/22 03:03:36;;;;;;;12.68;7.47;;;12.70;75.20;;;;;;5091941;28;20145;-62
2023/03/22 03:06:12;;;;;;;12.02;7.38;;;12.80;75.30;;;;;;5082445;28;20013;-62
2023/03/22 03:08:39;;;;;;;12.52;8.23;;;12.80;75.40;;;;;;5077017;28;20024;-62
2023/03/22 03:11:06;;;;;;;15.65;8.55;;;12.70;75.40;;;;;;5091009;28;20021;-62
2023/03/22 03:13:32;;;;;;;11.85;7.43;;;12.70;75.40;;;;;;5093182;28;20093;-63
2023/03/22 03:16:01;;;;;;;13.32;7.93;;;12.80;75.60;;;;;;5092338;28;20032;-62
2023/03/22 03:18:33;;;;;;;13.73;7.68;;;12.70;75.60;;;;;;5092484;28;20046;-62
2023/03/22 03:21:08;;;;;;;11.48;7.30;;;12.70;75.80;;;;;;5103519;28;20032;-62
2023/03/22 03:23:59;;;;;;;12.55;7.47;;;12.80;75.80;;;;;;5093015;28;20093;-62
2023/03/22 03:26:46;;;;;;;11.63;7.68;;;12.70;75.80;;;;;;5093074;28;20028;-62
2023/03/22 03:29:38;;;;;;;12.15;6.43;;;12.70;75.90;;;;;;5097565;28;20040;-62
2023/03/22 03:32:08;;;;;;;;;;;12.70;75.90;;;;;;5094448;28;20449;-62
2023/03/22 03:34:41;;;;;;;9.23;5.85;;;12.70;75.80;;;;;;5092217;28;19908;-62
2023/03/22 03:37:40;;;;;;;10.57;6.53;;;12.70;75.80;;;;;;5073186;28;20342;-62
2023/03/22 03:40:09;;;;;;;11.25;5.45;;;12.70;75.90;;;;;;5092008;28;20027;-62
2023/03/22 03:42:44;;;;;;;11.73;7.15;;;12.70;76.00;;;;;;5092367;28;20032;-62
2023/03/22 03:45:12;;;;;;;11.50;6.63;;;12.70;76.00;;;;;;5095842;28;20495;-62
2023/03/22 03:47:38;;;;;;;12.35;7.47;;;12.70;76.10;;;;;;5094636;28;20020;-62
2023/03/22 03:50:06;;;;;;;10.48;6.32;;;12.70;76.10;;;;;;5094108;28;20105;-62
2023/03/22 03:52:32;;;;;;;11.38;6.88;;;12.70;76.20;;;;;;5093453;28;20153;-62
2023/03/22 03:54:58;;;;;;;11.52;6.97;;;12.70;76.20;;;;;;5099411;28;20122;-62
2023/03/22 03:57:30;;;;;;;10.07;5.90;;;12.70;76.30;;;;;;5089993;28;20032;-62
2023/03/22 03:59:56;;;;;;;10.23;5.95;;;12.70;76.30;;;;;;5094510;28;20388;-62
2023/03/22 04:02:40;;;;;;;10.38;6.25;;;12.70;76.30;;;;;;5081506;28;20128;-62
2023/03/22 04:05:11;;;;;;;11.53;6.03;;;12.70;76.30;;;;;;5089026;28;20048;-62
2023/03/22 04:07:37;;;;;;;13.35;5.60;;;12.70;76.20;;;;;;5096763;28;20333;-62
2023/03/22 04:10:04;;;;;;;10.65;5.95;;;12.70;76.20;;;;;;5100813;28;20017;-62
2023/03/22 04:12:32;;;;;;;11.10;5.75;;;12.70;76.30;;;;;;5088252;28;20168;-62
2023/03/22 04:15:18;;;;;;;9.65;5.60;;;12.70;76.30;;;;;;5105133;28;20059;-62
2023/03/22 04:17:49;;;;;;;10.60;5.68;;;12.60;76.50;;;;;;5085947;28;20370;-62
2023/03/22 04:20:17;;;;;;;9.13;5.22;;;12.60;76.30;;;;;;5103317;28;20031;-62
2023/03/22 04:22:45;;;;;;;10.93;5.55;;;12.60;76.30;;;;;;5094339;28;20464;-62
2023/03/22 04:25:13;;;;;;;10.57;6.25;;;12.60;76.40;;;;;;5103170;28;20046;-62
2023/03/22 04:27:49;;;;;;;12.07;5.30;;;12.60;76.40;;;;;;5107562;28;20356;-62
2023/03/22 04:30:17;;;;;;;9.20;4.90;;;12.60;76.40;;;;;;5107726;28;20049;-62
2023/03/22 04:33:07;;;;;;;10.52;5.10;;;12.60;76.40;;;;;;5088167;28;20484;-62
2023/03/22 04:36:14;;;;;;;13.18;5.53;;;12.60;76.30;;;;;;5109208;28;20027;-62
2023/03/22 04:38:53;;;;;;;8.07;4.40;;;12.60;76.30;;;;;;5096297;28;20031;-62
2023/03/22 04:41:22;;;;;;;9.80;4.63;;;12.60;76.30;;;;;;5093950;28;20039;-62
2023/03/22 04:43:50;;;;;;;10.88;4.70;;;12.60;76.30;;;;;;5092019;28;20329;-62
2023/03/22 04:46:17;;;;;;;10.35;4.95;;;12.50;76.20;;;;;;5094189;28;20023;-62
2023/03/22 04:48:49;;;;;;;9.55;4.53;;;12.60;76.30;;;;;;5092385;28;20016;-62
2023/03/22 04:51:16;;;;;;;8.75;4.50;;;12.50;76.30;;;;;;5094189;28;20024;-62
2023/03/22 04:53:53;;;;;;;9.93;4.53;;;12.50;76.30;;;;;;5094126;28;20468;-62
2023/03/22 04:56:19;;;;;;;9.63;4.45;;;12.50;76.20;;;;;;5093131;28;20111;-62
2023/03/22 04:58:49;;;;;;;8.75;4.82;;;12.50;76.20;;;;;;5094077;28;20035;-62
2023/03/22 05:01:18;;;;;;;8.82;4.60;;;12.50;76.20;;;;;;5096286;28;20028;-62
2023/03/22 05:03:47;;;;;;;9.93;4.35;;;12.50;76.20;;;;;;5093379;28;20103;-62
2023/03/22 05:06:15;;;;;;;10.60;4.20;;;12.50;76.20;;;;;;5097288;28;20103;-62
2023/03/22 05:09:01;;;;;;;7.68;3.88;;;12.50;76.20;;;;;;5084951;28;20420;-62
2023/03/22 05:11:27;;;;;;;8.48;3.95;;;12.50;76.30;;;;;;5094218;28;20103;-62
2023/03/22 05:14:07;;;;;;;7.72;3.58;;;12.50;76.30;;;;;;5093914;28;20020;-62
2023/03/22 05:16:34;;;;;;;8.20;4.10;;;12.50;76.30;;;;;;5093579;28;20020;-61
2023/03/22 05:19:01;;;;;;;8.02;3.92;;;12.40;76.20;;;;;;5092957;28;20035;-62
2023/03/22 05:21:35;;;;;;;10.07;4.22;;;12.40;76.20;;;;;;5093813;28;20070;-61
2023/03/22 05:24:02;;;;;;;9.52;4.10;;;12.40;76.20;;;;;;5073707;28;20381;-62
2023/03/22 05:26:28;;;;;;;9.60;3.72;;;12.40;76.30;;;;;;5093520;28;20043;-61
2023/03/22 05:28:55;;;;;;;8.93;4.28;;;12.40;76.30;;;;;;5088743;28;20103;-61
2023/03/22 05:31:33;;;;;;;8.18;3.80;;;12.40;76.30;;;;;;5093832;28;20110;-61
2023/03/22 05:34:01;;;;;;;6.70;3.35;;;12.40;76.30;;;;;;5093161;28;20051;-62
2023/03/22 05:36:28;;;;;;;9.88;3.92;;;12.40;76.20;;;;;;5092153;28;20028;-61
2023/03/22 05:39:19;;;;;;;7.10;3.45;;;12.40;76.30;;;;;;5080270;28;20114;-61
2023/03/22 05:41:45;;;;;;;7.15;3.45;;;12.40;76.30;;;;;;5092464;28;20107;-62
2023/03/22 05:44:11;;;;;;;7.78;3.85;;;12.30;76.20;;;;;;5095337;28;20028;-61
2023/03/22 05:46:44;;;;;;;8.98;3.85;;;12.40;76.30;;;;;;5078210;28;20020;-61
2023/03/22 05:49:45;;;;;;;8.00;3.90;;;12.40;76.30;;;;;;5091027;28;20365;-61
2023/03/22 05:52:11;;;;;;;8.45;3.15;;;12.30;76.20;;;;;;5080261;28;20033;-62
2023/03/22 05:54:49;;;;;;;8.43;3.38;;;12.30;76.30;;;;;;5093240;28;20093;-62
2023/03/22 05:57:16;;;;;;;8.95;3.42;;;12.30;76.30;;;;;;5092600;28;20383;-62
2023/03/22 05:59:42;;;;;;;9.38;3.40;;;12.30;76.30;;;;;;5110668;28;20057;-62
2023/03/22 06:02:11;;;;;;;8.32;3.60;;;12.30;76.30;;;;;;5081533;28;20349;-62
2023/03/22 06:04:40;;;;;;;9.60;3.30;;;12.30;76.30;;;;;;5081465;28;20126;-62
2023/03/22 06:07:10;;;;;;;9.63;3.45;;;12.30;76.20;;;;;;5102149;28;20448;-62
2023/03/22 06:09:49;;;;;;;8.38;3.35;;;12.30;76.20;;;;;;5095896;28;20020;-63
2023/03/22 06:12:23;;;;;;;10.00;3.22;;;12.30;76.10;;;;;;5105066;28;20020;-62
2023/03/22 06:14:55;;;;;;;8.73;3.25;;;12.30;76.00;;;;;;5098976;28;20089;-62
2023/03/22 06:17:36;;;;;;;10.02;3.20;;;12.30;76.00;;;;;;5095066;28;20125;-63
2023/03/22 06:20:10;;;;;;;6.85;2.83;;;12.30;76.00;;;;;;5092690;28;20059;-62
2023/03/22 06:22:39;;;;;;;7.68;3.10;;;12.30;76.00;;;;;;5093649;28;20040;-63
2023/03/22 06:25:07;;;;;;;8.25;3.17;;;12.30;75.90;;;;;;5074889;28;20131;-62
2023/03/22 06:27:38;;;;;;;7.55;2.97;;;12.30;75.90;;;;;;5073829;28;20052;-62
2023/03/22 06:30:05;;;;;;;7.45;3.10;;;12.30;75.90;;;;;;5090867;28;20131;-62
2023/03/22 06:32:40;;;;;;;10.48;2.92;;;12.30;75.80;;;;;;5090823;28;20024;-63
2023/03/22 06:35:07;;;;;;;9.27;3.13;;;12.30;75.70;;;;;;5090094;28;20052;-62
2023/03/22 06:37:33;;;;;;;8.27;3.42;;;12.30;75.70;;;;;;5090567;28;20054;-62
2023/03/22 06:39:59;;;;;;;9.40;3.00;;;12.30;75.60;;;;;;5092284;28;20039;-63
2023/03/22 06:42:26;;;;;;;6.50;2.88;;;12.40;75.60;;;;;;5093718;28;20379;-63
2023/03/22 06:45:02;;;;;;;8.38;2.95;;;12.30;75.50;;;;;;5093693;28;20124;-62
2023/03/22 06:47:31;;;;;;;7.63;3.00;;;12.40;75.50;;;;;;5092618;28;20080;-63
2023/03/22 06:50:00;;;;;;;8.38;3.25;;;12.40;75.50;;;;;;5093755;28;20028;-63
2023/03/22 06:52:40;;;;;;;8.20;2.65;;;12.40;75.50;;;;;;5093515;28;20031;-62
2023/03/22 06:55:07;;;;;;;8.80;2.50;;;12.40;75.40;;;;;;5093533;28;20032;-63
2023/03/22 06:57:33;;;;;;;6.53;2.50;;;12.40;75.30;;;;;;5081495;28;20027;-63
2023/03/22 07:00:00;;;;;;;8.02;2.65;;;12.50;75.20;;;;;;5094523;28;20034;-62
2023/03/22 07:02:26;;;;;;;6.93;2.90;;;12.50;75.00;;;;;;5094432;28;20036;-63
2023/03/22 07:05:10;;;;;;;9.80;3.03;;;12.50;74.90;;;;;;5079249;28;20119;-62
2023/03/22 07:07:37;;;;;;;8.85;2.88;;;12.60;74.80;;;;;;5062371;28;20016;-62
2023/03/22 07:10:03;;;;;;;7.60;2.83;;;12.70;74.70;;;;;;5093255;28;20077;-62
2023/03/22 07:12:29;;;;;;;7.35;2.65;;;12.70;74.40;;;;;;5090260;28;20028;-63
2023/03/22 07:14:55;;;;;;;9.50;3.35;;;12.80;74.40;;;;;;5090731;28;20111;-63
2023/03/22 07:17:32;;;;;;;7.57;2.42;;;12.90;74.20;;;;;;5088320;28;20016;-63
2023/03/22 07:19:58;;;;;;;6.88;2.35;;;12.90;74.00;;;;;;5071772;28;20495;-63
2023/03/22 07:22:24;;;;;;;11.95;2.80;;;12.90;73.80;;;;;;5090641;28;20516;-63
2023/03/22 07:24:51;;;;;;;7.03;2.42;;;13.00;73.80;;;;;;5088885;28;20074;-63
2023/03/22 07:27:18;;;;;;;8.07;2.65;;;13.00;74.40;;;;;;5074216;28;20024;-62
2023/03/22 07:29:44;;;;;;;11.95;2.80;;;13.00;73.70;;;;;;5090130;28;20110;-62
2023/03/22 07:32:10;;;;;;;10.20;2.97;;;13.10;73.70;;;;;;5090883;28;20044;-63
2023/03/22 07:34:59;;;;;;;6.32;3.10;;;13.10;73.60;;;;;;5089380;28;20460;-63
2023/03/22 07:37:25;;;;;;;8.93;2.67;;;13.10;73.50;;;;;;5091491;28;20056;-63
2023/03/22 07:39:51;;;;;;;6.47;2.72;;;13.10;73.40;;;;;;5090353;28;20063;-63
2023/03/22 07:42:17;;;;;;;7.95;2.97;;;13.00;73.40;;;;;;5090702;28;20496;-63
2023/03/22 07:45:09;;;;;;;7.63;2.55;;;13.00;73.40;;;;;;5086016;28;20036;-62
2023/03/22 07:47:41;;;;;;;11.13;2.97;;;13.00;73.40;;;;;;5091223;28;20124;-62
2023/03/22 07:50:23;;;;;;;7.47;2.85;;;13.00;73.40;;;;;;5087708;28;20077;-67
2023/03/22 07:52:54;;;;;;;8.70;2.70;;;13.00;73.40;;;;;;5086223;28;20047;-66
2023/03/22 07:55:19;;;;;;;9.38;2.92;;;13.00;73.30;;;;;;5075682;28;20440;-66
2023/03/22 07:57:45;;;;;;;7.65;3.08;;;13.00;73.30;;;;;;5093857;28;20032;-66
2023/03/22 08:00:12;;;;;;;7.97;3.20;;;12.90;73.30;;;;;;5093299;28;20111;-66
2023/03/22 08:02:56;;;;;;;7.70;3.17;;;13.00;73.30;;;;;;5087626;28;20165;-66
2023/03/22 08:05:46;;;;;;;7.97;2.83;;;13.00;73.30;;;;;;5093494;28;20115;-66
2023/03/22 08:08:14;;;;;;;8.43;3.50;;;13.00;73.20;;;;;;5091475;28;20020;-66
2023/03/22 08:10:40;;;;;;;10.38;3.13;;;13.00;73.10;;;;;;5077682;28;20042;-66
2023/03/22 08:13:06;;;;;;;8.88;3.15;;;13.10;73.00;;;;;;5093828;28;20021;-66
2023/03/22 08:15:32;;;;;;;9.32;3.20;;;13.10;73.00;;;;;;5095098;28;20027;-66
2023/03/22 08:17:59;;;;;;;8.90;3.10;;;13.10;73.00;;;;;;5094242;28;20028;-67
2023/03/22 08:20:34;;;;;;;9.00;3.08;;;13.10;72.90;;;;;;5094024;28;20498;-66
2023/03/22 08:23:06;;;;;;;9.48;3.00;;;13.20;72.90;;;;;;5093111;28;20119;-67
2023/03/22 08:25:55;;;;;;;7.88;2.75;;;13.10;72.70;;;;;;5094135;28;20040;-66
2023/03/22 08:28:21;;;;;;;6.32;2.72;;;13.10;72.80;;;;;;5094775;28;20158;-67
2023/03/22 08:30:49;;;;;;;8.48;3.38;;;13.20;72.70;;;;;;5094872;28;20016;-67
2023/03/22 08:33:16;;;;;;;10.60;3.53;;;13.20;72.50;;;;;;5096261;28;20115;-67
2023/03/22 08:35:44;;;;;;;9.43;3.40;;;13.30;72.50;;;;;;5079820;28;20038;-66
2023/03/22 08:38:10;;;;;;;8.30;3.00;;;13.30;72.50;;;;;;5095468;28;20032;-66
2023/03/22 08:40:46;;;;;;;9.32;3.30;;;13.30;72.40;;;;;;5095345;28;20089;-67
2023/03/22 08:43:12;;;;;;;9.77;3.22;;;13.40;72.30;;;;;;5094547;28;20024;-66
2023/03/22 08:45:38;;;;;;;9.98;3.17;;;13.40;72.20;;;;;;5104605;28;20024;-67
2023/03/22 08:48:09;;;;;;;9.43;3.40;;;13.50;72.10;;;;;;5077004;28;20468;-67
2023/03/22 08:50:53;;;;;;;8.50;3.35;;;13.50;71.90;;;;;;5093417;28;20085;-62
2023/03/22 08:53:27;;;;;;;8.48;2.85;;;13.50;71.80;;;;;;5090606;28;20016;-63
2023/03/22 08:56:08;;;;;;;10.88;3.35;;;13.60;71.60;;;;;;5078237;28;20405;-63
2023/03/22 08:58:45;;;;;;;6.97;2.85;;;13.70;71.50;;;;;;5090955;28;20059;-63
2023/03/22 09:01:25;;;;;;;9.00;3.15;;;13.80;71.20;;;;;;5101959;28;20028;-64
2023/03/22 09:03:56;;;;;;;11.00;3.35;;;13.80;70.90;;;;;;5090898;28;20044;-63
2023/03/22 09:06:24;;;;;;;6.47;2.80;;;13.90;70.50;;;;;;5093512;28;20016;-63
2023/03/22 09:08:51;;;;;;;8.95;3.20;;;14.00;70.30;;;;;;5092256;28;20065;-63
2023/03/22 09:11:20;;;;;;;9.68;2.88;;;14.10;70.10;;;;;;5093462;28;20027;-62
2023/03/22 09:13:48;;;;;;;7.82;3.00;;;14.20;70.00;;;;;;5094174;28;20024;-63
2023/03/22 09:16:15;;;;;;;8.57;3.33;;;14.20;69.70;;;;;;5092216;28;20016;-62
2023/03/22 09:18:42;;;;;;;7.20;2.83;;;14.20;69.50;;;;;;5091683;28;20031;-62
2023/03/22 09:21:12;;;;;;;10.60;2.92;;;14.30;69.40;;;;;;5093575;28;20444;-63
2023/03/22 09:23:46;;;;;;;8.05;2.92;;;14.30;69.20;;;;;;5092872;28;20020;-65
2023/03/22 09:26:13;;;;;;;8.85;3.20;;;14.30;69.10;;;;;;5093566;28;20190;-63
2023/03/22 09:28:40;;;;;;;8.90;2.58;;;14.30;68.80;;;;;;5092021;28;20162;-62
2023/03/22 09:31:08;;;;;;;5.97;2.28;;;14.40;68.70;;;;;;5091034;28;20152;-63
2023/03/22 09:33:36;;;;;;;6.97;3.00;;;14.40;68.50;;;;;;5093508;28;20035;-64
2023/03/22 09:36:02;;;;;;;7.85;2.55;;;14.40;68.20;;;;;;5109449;28;20444;-63
2023/03/22 09:38:32;;;;;;;8.27;2.45;;;14.40;68.10;;;;;;5092858;28;20362;-63
2023/03/22 09:41:03;;;;;;;7.20;2.50;;;14.40;68.10;;;;;;5099082;28;20051;-62
2023/03/22 09:43:36;;;;;;;6.80;2.08;;;14.30;68.00;;;;;;5093241;28;20016;-62
2023/03/22 09:46:07;;;;;;;5.88;1.90;;;14.30;68.00;;;;;;5092098;28;20019;-63
2023/03/22 09:48:36;;;;;;;9.07;2.40;;;14.30;68.10;;;;;;5094208;28;20024;-64
2023/03/22 09:51:06;;;;;;;6.65;2.17;;;14.20;68.10;;;;;;5094034;28;20028;-65
2023/03/22 09:53:33;;;;;;;7.07;2.60;;;14.20;68.20;;;;;;5094196;28;20123;-64
2023/03/22 09:56:07;;;;;;;6.97;2.25;;;14.20;68.10;;;;;;5093816;28;20032;-64
2023/03/22 09:58:48;;;;;;;7.10;1.98;;;14.10;68.10;;;;;;5089173;28;20115;-64
2023/03/22 10:01:27;;;;;;;7.53;2.55;;;14.00;68.00;;;;;;5091213;28;20040;-65
2023/03/22 10:03:53;;;;;;;9.73;2.65;;;14.00;68.10;;;;;;5093866;28;20053;-64
2023/03/22 10:06:23;;;;;;;11.38;2.28;;;14.00;68.10;;;;;;5093494;28;20149;-63
2023/03/22 10:08:52;;;;;;;6.80;2.00;;;13.90;68.00;;;;;;5092160;28;20391;-63
2023/03/22 10:11:39;;;;;;;7.35;2.28;;;13.90;68.00;;;;;;5089862;28;20118;-63
2023/03/22 10:14:26;;;;;;;8.77;2.20;;;13.90;67.90;;;;;;5091294;28;20028;-63
2023/03/22 10:16:56;;;;;;;9.95;2.28;;;13.90;67.90;;;;;;5093316;28;20023;-66
2023/03/22 10:19:35;;;;;;;7.63;2.08;;;13.90;67.80;;;;;;5092250;28;20039;-64
2023/03/22 10:22:02;;;;;;;7.38;1.98;;;13.90;67.60;;;;;;5098503;28;20031;-64
2023/03/22 10:24:34;;;;;;;7.15;2.33;;;13.80;68.40;;;;;;5074609;28;20041;-64
2023/03/22 10:27:00;;;;;;;;;;;13.80;67.80;;;;;;5075197;28;20060;-64
2023/03/22 10:29:58;;;;;;;8.82;2.05;;;13.80;68.00;;;;;;5107497;28;19919;-64
2023/03/22 10:32:31;;;;;;;7.15;1.85;;;13.80;68.10;;;;;;5085230;28;20373;-64
2023/03/22 10:34:57;;;;;;;5.78;1.70;;;13.70;68.30;;;;;;5109597;28;20127;-64
2023/03/22 10:37:30;;;;;;;7.30;1.98;;;13.70;68.50;;;;;;5112830;28;20031;-65
2023/03/22 10:40:06;;;;;;;7.10;1.92;;;13.80;68.80;;;;;;5114183;28;20038;-64
2023/03/22 10:42:37;;;;;;;6.38;1.85;;;13.70;68.80;;;;;;5088559;28;20092;-64
2023/03/22 10:45:13;;;;;;;7.55;2.33;;;13.70;69.00;;;;;;5106880;28;20074;-64
2023/03/22 10:47:48;;;;;;;6.32;1.85;;;13.70;69.20;;;;;;5106585;28;20436;-64
2023/03/22 10:50:21;;;;;;;9.88;2.05;;;13.60;70.10;;;;;;5113988;28;20032;-64
2023/03/22 10:52:50;;;;;;;5.53;1.60;;;13.60;69.70;;;;;;5095570;28;20383;-64
2023/03/22 10:55:16;;;;;;;5.80;1.88;;;13.60;70.00;;;;;;5111779;28;20027;-64
2023/03/22 10:58:11;;;;;;;8.13;2.47;;;13.60;70.30;;;;;;5092068;28;20038;-64
2023/03/22 11:00:37;;;;;;;8.95;2.30;;;13.60;70.70;;;;;;5093826;28;20058;-64
2023/03/22 11:03:05;;;;;;;5.82;2.17;;;13.60;70.80;;;;;;5089677;28;20034;-64
2023/03/22 11:05:30;;;;;;;7.75;2.00;;;13.60;71.10;;;;;;5092900;28;20386;-63
2023/03/22 11:07:57;;;;;;;5.97;2.20;;;13.70;71.30;;;;;;5092728;28;20035;-63
2023/03/22 11:10:31;;;;;;;7.10;2.10;;;13.70;71.50;;;;;;5073537;28;20036;-63
2023/03/22 11:13:06;;;;;;;7.25;2.10;;;13.70;71.70;;;;;;5079637;28;20047;-63
2023/03/22 11:15:35;;;;;;;7.75;2.05;;;13.70;71.80;;;;;;5090420;28;20062;-65
2023/03/22 11:18:14;;;;;;;8.50;2.20;;;13.60;71.90;;;;;;5090191;28;20034;-65
2023/03/22 11:20:50;;;;;;;6.95;2.22;;;13.60;72.00;;;;;;5092681;28;20028;-64
2023/03/22 11:23:18;;;;;;;7.13;2.15;;;13.60;72.20;;;;;;5092157;28;20063;-65
2023/03/22 11:25:47;;;;;;;5.63;2.20;;;13.60;72.40;;;;;;5100116;28;20044;-65
2023/03/22 11:28:56;;;;;;;6.93;2.40;;;13.60;72.60;;;;;;5087912;28;20504;-65
2023/03/22 11:31:24;;;;;;;7.90;2.00;;;13.60;72.80;;;;;;5036405;28;20071;-65
2023/03/22 11:33:58;;;;;;;8.32;2.40;;;13.60;72.80;;;;;;5080358;28;20048;-64
2023/03/22 11:36:25;;;;;;;7.15;2.47;;;13.60;73.00;;;;;;5096185;28;20027;-64
2023/03/22 11:38:59;;;;;;;8.73;2.00;;;13.50;73.10;;;;;;5085824;28;20036;-65
2023/03/22 11:41:27;;;;;;;6.30;1.88;;;13.50;73.30;;;;;;5094712;28;20028;-65
2023/03/22 11:44:06;;;;;;;5.47;1.85;;;13.60;73.40;;;;;;5090867;28;20473;-65
2023/03/22 11:46:33;;;;;;;4.97;1.85;;;13.60;73.30;;;;;;5093111;28;20020;-65
2023/03/22 11:49:07;;;;;;;6.10;1.90;;;13.60;73.40;;;;;;5091510;28;20024;-66
2023/03/22 11:51:36;;;;;;;5.95;1.73;;;13.60;73.40;;;;;;5090417;28;20048;-63
2023/03/22 11:54:19;;;;;;;6.85;1.73;;;13.60;73.40;;;;;;5090756;28;20111;-63
2023/03/22 11:56:47;;;;;;;7.53;2.35;;;13.60;73.50;;;;;;5082865;28;20107;-64
2023/03/22 11:59:26;;;;;;;6.00;1.63;;;13.60;73.50;;;;;;5095177;28;20309;-63
2023/03/22 12:02:13;;;;;;;3.92;1.50;;;13.50;73.50;;;;;;5095316;28;20024;-64
2023/03/22 12:04:43;;;;;;;6.13;2.00;;;13.60;73.60;;;;;;5094285;28;20588;-63
2023/03/22 12:07:15;;;;;;;5.43;1.88;;;13.60;73.60;;;;;;5092214;28;20035;-63
2023/03/22 12:09:46;;;;;;;8.70;1.80;;;13.60;73.50;;;;;;5093161;28;20100;-63
2023/03/22 12:12:19;;;;;;;7.22;2.00;;;13.60;73.60;;;;;;5097253;28;20370;-63
2023/03/22 12:14:58;;;;;;;6.38;1.80;;;13.60;73.50;;;;;;5090435;28;20423;-64
2023/03/22 12:17:42;;;;;;;5.88;2.10;;;13.60;73.50;;;;;;5091106;28;20070;-63
2023/03/22 12:20:20;;;;;;;7.40;2.17;;;13.50;73.60;;;;;;5093348;28;20115;-63
2023/03/22 12:22:52;;;;;;;5.63;2.00;;;13.60;74.20;;;;;;5083272;28;20107;-63
2023/03/22 12:25:30;;;;;;;8.65;2.33;;;13.50;73.50;;;;;;5047909;28;1125446;-63
2023/03/22 12:28:00;;;;;;;6.70;2.10;;;13.60;73.60;;;;;;5093389;28;20355;-63
2023/03/22 12:30:32;;;;;;;9.63;2.33;;;13.60;73.50;;;;;;5096672;28;20028;-63
2023/03/22 12:33:26;;;;;;;6.78;1.92;;;13.60;73.50;;;;;;5098877;28;20444;-63
2023/03/22 12:35:57;;;;;;;6.75;2.05;;;13.60;74.10;;;;;;5096403;28;20047;-63
2023/03/22 12:38:36;;;;;;;8.45;1.70;;;13.60;73.50;;;;;;5095257;28;20024;-63
2023/03/22 12:41:06;;;;;;;8.73;1.90;;;13.50;73.50;;;;;;5101526;28;20040;-63
2023/03/22 12:43:48;;;;;;;8.45;2.25;;;13.50;73.50;;;;;;5093971;28;20031;-63
2023/03/22 12:46:25;;;;;;;6.90;1.88;;;13.50;73.60;;;;;;5096588;28;20422;-63
2023/03/22 12:49:18;;;;;;;5.82;2.00;;;13.60;73.60;;;;;;5095853;28;20034;-63
2023/03/22 12:51:45;;;;;;;5.32;2.00;;;13.50;73.50;;;;;;5093224;28;20031;-63
2023/03/22 12:54:14;;;;;;;6.03;1.98;;;13.50;73.50;;;;;;5099067;28;20436;-63
2023/03/22 12:56:45;;;;;;;6.25;1.92;;;13.50;73.40;;;;;;5095139;28;20070;-63
2023/03/22 12:59:21;;;;;;;5.40;2.13;;;13.50;73.50;;;;;;5095880;28;20032;-63
2023/03/22 13:01:55;;;;;;;7.88;2.30;;;13.50;73.50;;;;;;5090437;28;20024;-63
2023/03/22 13:04:30;;;;;;;6.53;1.90;;;13.50;73.40;;;;;;5097458;28;20127;-64
2023/03/22 13:07:07;;;;;;;5.40;2.03;;;13.60;73.50;;;;;;5096470;28;20028;-63
2023/03/22 13:09:35;;;;;;;6.63;1.88;;;13.60;73.50;;;;;;5095222;28;20024;-64
2023/03/22 13:12:32;;;;;;;6.85;2.30;;;13.60;73.40;;;;;;5104743;28;20143;-63
2023/03/22 13:15:28;;;;;;;7.13;2.15;;;13.60;73.30;;;;;;5091483;28;20158;-64